Kingville, South Carolina
Current Conditions -  °F | °C
As of 12:58 AM on Thursday 23 Oct 2014 (Local Time) from KMMT Reporting Station
Clear Clear  
Wind Chill:   Ceiling: Unl
Heat Index:   Visibility: 10mi
Dew Point:   Wind: 6mph
Humidity: 74%   Direction: 310°NW
Pressure: 30.1"   Gusts: NA
Location:  33.8428°N, 80.7414°W
Report Text: KMMT 230458Z AUTO 31005KT 10SM CLR 09/05 A3010 RMK AO2 SLP195 T00890045 402000057
Loading
Personal Weather Stations






























Interactive Weather Map
Tropical Storm Tracking
New forecast layout! Learn more

10-Day Weather Forecast

Advertisements
Track Severe Weather on mobile